Time;durP1;ratioP1;P1;durP2;ratioP2;P2;SDS_P1;SDS_P2;PMS_P1;PMS_P2;Temp;Humidity;BMP_temperature;BMP_pressure;BME280_temperature;BME280_humidity;BME280_pressure;Samples;Min_cycle;Max_cycle;Signal;HPM_P1;HPM_P2
2022/03/23 00:01:53;;;;;;;20.20;12.93;;;;;;;6.33;50.32;96761.06;6098703;23;20250;-80
2022/03/23 00:04:19;;;;;;;17.63;12.90;;;;;;;6.38;49.83;96764.22;6100575;23;20206;-78
2022/03/23 00:06:44;;;;;;;20.20;13.67;;;;;;;6.30;50.24;96756.94;6100516;23;20235;-80
2022/03/23 00:09:09;;;;;;;19.93;13.17;;;;;;;6.17;50.53;96756.81;6076069;23;20238;-80
2022/03/23 00:11:35;;;;;;;17.90;12.60;;;;;;;6.18;50.33;96755.06;6099709;23;20160;-80
2022/03/23 00:14:00;;;;;;;19.30;12.97;;;;;;;6.04;50.45;96755.91;6100080;23;20203;-80
2022/03/23 00:16:26;;;;;;;18.93;12.73;;;;;;;6.10;50.04;96757.28;6100299;23;20214;-80
2022/03/23 00:18:51;;;;;;;18.93;13.50;;;;;;;6.20;49.54;96756.66;6100048;23;20153;-79
2022/03/23 00:21:16;;;;;;;17.87;13.17;;;;;;;6.20;49.14;96760.97;6099454;23;20152;-80
2022/03/23 00:23:42;;;;;;;22.80;14.13;;;;;;;6.21;48.63;96757.47;6099936;23;20152;-81
2022/03/23 00:26:08;;;;;;;17.87;12.50;;;;;;;6.22;48.76;96759.97;6098040;23;20263;-78
2022/03/23 00:28:33;;;;;;;17.43;11.93;;;;;;;6.21;47.75;96760.06;6076181;23;20199;-78
2022/03/23 00:30:59;;;;;;;18.47;12.63;;;;;;;6.25;47.94;96753.78;6100002;23;20176;-78
2022/03/23 00:33:24;;;;;;;16.43;11.37;;;;;;;6.20;48.03;96755.81;6099658;23;20160;-77
2022/03/23 00:35:49;;;;;;;16.17;12.03;;;;;;;6.09;47.85;96750.44;6100679;23;20180;-78
2022/03/23 00:38:16;;;;;;;15.53;11.60;;;;;;;6.20;47.71;96755.81;6101279;23;20223;-78
2022/03/23 00:40:43;;;;;;;17.00;11.80;;;;;;;6.23;48.09;96755.63;6102204;23;20159;-78
2022/03/23 00:43:08;;;;;;;15.67;11.60;;;;;;;6.22;47.32;96759.13;6077100;23;20248;-78
2022/03/23 00:45:34;;;;;;;20.93;11.70;;;;;;;6.18;47.44;96755.06;6101632;23;20231;-77
2022/03/23 00:47:59;;;;;;;14.50;10.93;;;;;;;6.14;47.92;96758.75;6125952;23;20156;-79
2022/03/23 00:50:24;;;;;;;20.13;11.93;;;;;;;6.10;47.60;96754.72;6101831;23;20184;-77
2022/03/23 00:52:50;;;;;;;16.10;11.50;;;;;;;6.06;47.58;96750.66;6100957;23;20162;-78
2022/03/23 00:55:16;;;;;;;13.60;10.50;;;;;;;6.05;46.85;96761.88;6100837;23;20249;-78
2022/03/23 00:57:42;;;;;;;17.07;11.50;;;;;;;6.02;47.10;96752.59;6101062;23;20594;-78
2022/03/23 01:00:12;;;;;;;15.60;10.77;;;;;;;6.25;46.30;96756.38;6076715;23;20315;-78
2022/03/23 01:02:41;;;;;;;14.90;11.33;;;;;;;6.28;46.49;96756.19;6053232;23;20148;-78
2022/03/23 01:05:08;;;;;;;13.33;9.93;;;;;;;6.21;46.48;96757.47;6100951;23;20204;-78
2022/03/23 01:07:34;;;;;;;14.33;10.77;;;;;;;6.18;45.91;96755.06;6126915;23;20213;-77
2022/03/23 01:09:59;;;;;;;12.87;9.57;;;;;;;6.27;45.66;96751.09;6076747;23;20630;-77
2022/03/23 01:12:24;;;;;;;15.60;10.80;;;;;;;6.32;45.33;96756.84;6099238;23;20483;-77
2022/03/23 01:14:49;;;;;;;14.73;9.60;;;;;;;6.45;44.72;96753.44;6126207;23;20204;-78
2022/03/23 01:17:16;;;;;;;13.87;9.73;;;;;;;6.45;44.70;96750.03;6100192;23;20163;-77
2022/03/23 01:19:42;;;;;;;16.00;9.60;;;;;;;6.39;44.71;96750.38;6101750;23;20235;-78
2022/03/23 01:22:07;;;;;;;13.67;9.80;;;;;;;6.40;44.37;96754.63;6101221;23;20197;-78
2022/03/23 01:24:33;;;;;;;11.03;8.70;;;;;;;6.27;44.22;96738.22;6101627;23;20560;-80
2022/03/23 01:26:58;;;;;;;11.60;9.17;;;;;;;6.33;43.94;96751.56;6099912;23;20167;-79
2022/03/23 01:29:23;;;;;;;13.60;9.43;;;;;;;6.23;44.31;96740.16;6101434;23;20569;-78
2022/03/23 01:31:49;;;;;;;12.37;9.47;;;;;;;6.23;43.97;96750.47;6101230;23;20171;-79
2022/03/23 01:34:15;;;;;;;13.00;9.17;;;;;;;6.17;44.39;96741.34;6101694;23;20171;-79
2022/03/23 01:36:40;;;;;;;11.07;8.73;;;;;;;6.29;43.78;96744.13;6100525;23;20235;-79
2022/03/23 01:39:05;;;;;;;15.27;9.97;;;;;;;6.42;43.19;96743.28;6101098;23;20156;-79
2022/03/23 01:41:34;;;;;;;13.73;8.50;;;;;;;6.38;43.55;96746.97;6099864;23;20492;-78
2022/03/23 01:43:59;;;;;;;14.13;9.23;;;;;;;6.32;44.00;96739.59;6100410;23;20163;-78
2022/03/23 01:46:26;;;;;;;11.40;8.23;;;;;;;6.27;43.85;96743.38;6101257;23;20152;-78
2022/03/23 01:48:51;;;;;;;12.57;8.60;;;;;;;6.25;43.25;96743.47;6101076;23;20164;-78
2022/03/23 01:51:17;;;;;;;13.03;9.10;;;;;;;6.14;44.19;96743.28;6100655;23;20168;-78
2022/03/23 01:53:42;;;;;;;11.00;8.50;;;;;;;6.02;44.19;96742.28;6100623;23;20240;-78
2022/03/23 01:56:09;;;;;;;13.23;9.70;;;;;;;6.12;44.18;96743.38;6126712;23;20183;-79
2022/03/23 01:58:36;;;;;;;11.97;8.53;;;;;;;6.07;44.42;96740.22;6101154;23;20152;-78
2022/03/23 02:01:01;;;;;;;12.63;9.30;;;;;;;6.00;44.74;96741.50;6076693;23;20179;-78
2022/03/23 02:03:26;;;;;;;12.67;9.20;;;;;;;5.96;44.41;96743.44;6100050;23;20574;-77
2022/03/23 02:05:52;;;;;;;12.07;8.97;;;;;;;5.86;45.41;96737.16;6100754;23;20176;-78
2022/03/23 02:08:17;;;;;;;12.97;9.53;;;;;;;5.99;45.47;96742.44;6100853;23;20450;-78
2022/03/23 02:10:43;;;;;;;15.27;9.73;;;;;;;6.00;45.31;96743.25;6100958;23;20188;-78
2022/03/23 02:13:09;;;;;;;14.37;8.80;;;;;;;5.93;46.23;96742.81;6076319;23;20159;-79
2022/03/23 02:15:35;;;;;;;12.47;8.93;;;;;;;5.77;46.78;96742.84;6101431;23;20223;-77
2022/03/23 02:18:00;;;;;;;14.27;10.40;;;;;;;5.78;46.52;96743.66;6100564;23;20156;-78
2022/03/23 02:20:25;;;;;;;16.27;10.10;;;;;;;5.83;46.48;96742.50;6100919;23;20670;-78
2022/03/23 02:22:51;;;;;;;14.87;10.63;;;;;;;5.82;46.73;96738.22;6075700;23;20595;-77
2022/03/23 02:25:22;;;;;;;16.87;10.50;;;;;;;5.87;46.81;96745.72;6076696;23;20234;-78
2022/03/23 02:27:48;;;;;;;15.10;9.97;;;;;;;5.86;46.69;96742.31;6098307;23;20204;-77
2022/03/23 02:30:14;;;;;;;15.00;10.10;;;;;;;5.92;46.58;96747.16;6100722;23;20187;-80
2022/03/23 02:32:40;;;;;;;16.87;10.77;;;;;;;5.81;46.59;96740.91;6099890;23;20164;-78
2022/03/23 02:35:07;;;;;;;18.87;10.83;;;;;;;5.77;47.53;96740.25;6076464;23;20175;-79
2022/03/23 02:37:32;;;;;;;13.37;9.93;;;;;;;5.69;47.23;96735.53;6126814;23;20148;-78
2022/03/23 02:39:57;;;;;;;15.03;11.00;;;;;;;5.72;47.36;96739.69;6100574;23;20152;-77
2022/03/23 02:42:23;;;;;;;13.53;9.90;;;;;;;5.67;47.46;96742.53;6100145;23;20159;-77
2022/03/23 02:44:48;;;;;;;15.03;9.43;;;;;;;5.61;48.01;96739.47;6100849;23;20180;-79
2022/03/23 02:47:13;;;;;;;14.47;10.50;;;;;;;5.38;49.30;96739.03;6100344;23;20152;-78
2022/03/23 02:49:39;;;;;;;15.17;9.80;;;;;;;5.13;49.78;96741.34;6100801;23;20647;-78
2022/03/23 02:52:05;;;;;;;11.37;8.67;;;;;;;4.90;51.38;96754.63;6100195;23;20536;-79
2022/03/23 03:03:07;;;;;;;17.83;9.67;;;;;;;4.50;51.79;96749.03;6124463;23;20146;-79
2022/03/23 03:05:32;;;;;;;17.03;10.27;;;;;;;4.49;51.55;96743.06;6099796;23;20549;-79
2022/03/23 03:10:41;;;;;;;14.30;9.87;;;;;;;4.66;51.57;96752.47;6104333;23;20187;-79
2022/03/23 03:13:07;;;;;;;14.27;10.40;;;;;;;4.66;51.17;96749.91;6099847;23;20172;-79
2022/03/23 03:15:33;;;;;;;13.50;10.10;;;;;;;4.93;50.91;96757.03;6076368;23;20642;-78
2022/03/23 03:17:58;;;;;;;18.67;10.37;;;;;;;4.91;50.53;96753.72;6076162;23;20168;-81
2022/03/23 03:20:23;;;;;;;12.17;10.13;;;;;;;4.84;50.63;96751.47;6126326;23;20152;-78
2022/03/23 03:22:49;;;;;;;14.23;10.50;;;;;;;4.88;50.27;96751.34;6075747;23;20156;-78
2022/03/23 03:25:16;;;;;;;14.33;10.47;;;;;;;4.76;50.83;96756.19;6126579;23;20199;-79
2022/03/23 03:27:42;;;;;;;17.67;10.70;;;;;;;4.76;50.79;96757.94;6097902;23;20160;-79
2022/03/23 03:30:11;;;;;;;15.30;10.40;;;;;;;4.75;51.02;96757.13;6099865;23;20187;-77
2022/03/23 03:32:36;;;;;;;18.73;10.27;;;;;;;4.71;50.89;96755.63;6125416;23;20160;-78
2022/03/23 03:35:02;;;;;;;13.47;10.20;;;;;;;4.63;51.39;96757.78;6100416;23;20187;-79
2022/03/23 03:37:27;;;;;;;15.37;9.33;;;;;;;4.57;51.81;96763.25;6076382;23;20172;-77
2022/03/23 03:39:53;;;;;;;14.23;9.90;;;;;;;4.55;51.78;96762.50;6100275;23;20151;-79
2022/03/23 03:42:18;;;;;;;13.57;10.40;;;;;;;4.47;52.23;96767.22;6075429;23;20506;-78
2022/03/23 03:44:44;;;;;;;15.00;10.60;;;;;;;4.40;52.23;96755.59;6076447;23;20652;-79
2022/03/23 03:47:10;;;;;;;14.87;10.07;;;;;;;4.43;52.18;96763.16;6100292;23;20160;-77
2022/03/23 03:49:35;;;;;;;12.37;9.60;;;;;;;4.37;52.03;96761.72;6076584;23;20187;-78
2022/03/23 03:52:01;;;;;;;14.83;10.17;;;;;;;4.44;51.41;96763.09;6125230;23;20499;-79
2022/03/23 03:54:26;;;;;;;12.53;9.53;;;;;;;4.43;51.39;96764.00;6076102;23;20187;-78
2022/03/23 03:56:51;;;;;;;14.70;9.13;;;;;;;4.40;51.77;96758.16;6124618;23;20218;-79
2022/03/23 03:59:16;;;;;;;14.27;9.67;;;;;;;4.31;52.00;96766.34;6100854;23;20152;-78
2022/03/23 04:01:42;;;;;;;15.43;9.60;;;;;;;4.26;52.52;96764.88;6099241;23;20183;-77
2022/03/23 04:04:07;;;;;;;13.73;9.57;;;;;;;4.22;52.67;96768.50;6099831;23;20511;-78
2022/03/23 04:06:32;;;;;;;14.03;9.17;;;;;;;4.26;52.33;96764.03;6099689;23;20486;-79
2022/03/23 04:08:58;;;;;;;15.43;9.73;;;;;;;4.22;52.88;96765.91;6100551;23;20156;-76
2022/03/23 04:11:23;;;;;;;11.60;9.60;;;;;;;4.21;52.49;96760.88;6077364;23;20521;-78
2022/03/23 04:13:48;;;;;;;14.57;9.70;;;;;;;4.22;52.46;96763.34;6101874;23;20152;-79
2022/03/23 04:16:13;;;;;;;13.53;10.17;;;;;;;4.17;52.63;96764.50;6101779;23;20170;-79
2022/03/23 04:18:39;;;;;;;14.33;10.27;;;;;;;4.09;53.01;96767.47;6078043;23;20198;-78
2022/03/23 04:21:05;;;;;;;15.30;10.23;;;;;;;3.99;54.05;96768.84;6101933;23;20156;-77
2022/03/23 04:23:30;;;;;;;17.40;10.33;;;;;;;3.92;54.50;96765.75;6101618;23;20159;-78
2022/03/23 04:25:56;;;;;;;14.27;9.93;;;;;;;3.89;54.74;96765.09;6076565;23;20211;-79
2022/03/23 04:28:21;;;;;;;15.43;10.40;;;;;;;3.81;54.91;96767.22;6101842;23;20162;-79
2022/03/23 04:30:47;;;;;;;14.10;10.37;;;;;;;3.78;54.88;96762.22;6102251;23;20634;-79
2022/03/23 04:33:13;;;;;;;15.17;10.37;;;;;;;3.77;54.51;96765.69;6100784;23;20156;-78
2022/03/23 04:35:38;;;;;;;14.73;10.73;;;;;;;3.70;55.01;96768.53;6102218;23;20184;-78
2022/03/23 04:38:04;;;;;;;15.23;10.60;;;;;;;3.72;54.93;96772.81;6102651;23;20542;-80
2022/03/23 04:40:30;;;;;;;13.93;10.87;;;;;;;3.74;54.67;96769.25;6128500;23;20152;-79
2022/03/23 04:42:56;;;;;;;15.37;11.03;;;;;;;3.83;54.43;96773.09;6101048;23;20203;-79
2022/03/23 04:45:21;;;;;;;14.87;10.03;;;;;;;3.97;53.44;96773.22;6128369;23;20496;-78
2022/03/23 04:47:46;;;;;;;15.10;10.83;;;;;;;3.93;53.62;96774.28;6077750;23;20171;-78
2022/03/23 04:50:12;;;;;;;15.63;10.93;;;;;;;3.94;53.85;96776.78;6077395;23;20187;-79
2022/03/23 04:52:39;;;;;;;13.63;9.40;;;;;;;3.87;54.05;96779.72;6077874;23;20167;-79
2022/03/23 04:55:06;;;;;;;15.50;10.13;;;;;;;3.80;54.29;96774.09;6101479;23;20199;-78
2022/03/23 04:57:31;;;;;;;18.67;10.50;;;;;;;3.78;54.25;96772.47;6077420;23;20163;-79
2022/03/23 04:59:59;;;;;;;15.47;11.10;;;;;;;3.70;54.81;96772.84;6069780;23;20164;-79
2022/03/23 05:02:28;;;;;;;13.80;10.53;;;;;;;3.63;54.95;96780.06;6099713;23;20518;-80
2022/03/23 05:04:53;;;;;;;15.40;11.77;;;;;;;3.57;55.09;96777.78;6076314;23;20176;-79
2022/03/23 05:07:19;;;;;;;16.43;10.97;;;;;;;3.54;55.56;96785.66;6101031;23;20215;-79
2022/03/23 05:09:44;;;;;;;15.63;10.53;;;;;;;3.57;55.37;96788.06;6098668;23;20181;-79
2022/03/23 05:12:09;;;;;;;17.00;11.03;;;;;;;3.57;55.26;96785.47;6126158;23;20152;-77
2022/03/23 05:14:36;;;;;;;14.53;11.10;;;;;;;3.50;55.38;96793.56;6101029;23;20678;-79
2022/03/23 05:17:01;;;;;;;16.10;10.83;;;;;;;3.40;56.25;96790.59;6100823;23;20179;-78
2022/03/23 05:19:27;;;;;;;15.17;11.10;;;;;;;3.34;57.18;96790.88;6100757;23;20155;-78
2022/03/23 05:21:52;;;;;;;14.80;11.23;;;;;;;3.31;57.70;96788.47;6099548;23;20609;-78
2022/03/23 05:24:18;;;;;;;14.90;10.27;;;;;;;3.27;58.09;96792.94;6127165;23;20334;-78
2022/03/23 05:26:43;;;;;;;13.33;9.83;;;;;;;3.20;58.43;96796.69;6076902;23;20164;-80
2022/03/23 05:29:09;;;;;;;17.20;10.63;;;;;;;3.16;58.64;96792.59;6100875;23;20175;-80
2022/03/23 05:31:34;;;;;;;14.93;9.80;;;;;;;3.10;58.48;96793.72;6126885;23;20153;-79
2022/03/23 05:34:00;;;;;;;13.47;10.10;;;;;;;3.10;58.91;96798.03;6127260;23;20168;-79
2022/03/23 05:36:25;;;;;;;17.47;10.47;;;;;;;3.10;58.95;96801.44;6101286;23;20174;-78
2022/03/23 05:38:50;;;;;;;15.10;10.90;;;;;;;3.12;58.92;96798.78;6077549;23;20167;-78
2022/03/23 05:41:16;;;;;;;15.60;10.03;;;;;;;3.23;58.29;96796.53;6099777;23;20163;-78
2022/03/23 05:43:41;;;;;;;14.30;10.63;;;;;;;3.33;57.05;96792.63;6076264;23;20186;-80
2022/03/23 05:46:06;;;;;;;17.87;11.40;;;;;;;3.44;56.41;96797.25;6127401;23;20180;-78
2022/03/23 05:48:32;;;;;;;19.53;12.10;;;;;;;3.57;55.86;96805.19;6078643;23;20513;-80
2022/03/23 05:50:57;;;;;;;18.47;13.40;;;;;;;3.64;55.47;96807.41;6127263;23;20199;-79
2022/03/23 05:53:22;;;;;;;15.50;11.47;;;;;;;3.80;55.14;96810.06;6127674;23;20165;-79
2022/03/23 05:55:47;;;;;;;14.80;10.43;;;;;;;3.91;54.57;96807.78;6101798;23;20190;-80
2022/03/23 05:58:13;;;;;;;15.20;11.23;;;;;;;4.04;53.91;96804.59;6126775;23;20199;-79
2022/03/23 06:00:38;;;;;;;16.27;10.50;;;;;;;4.10;53.66;96807.69;6102522;23;20195;-78
2022/03/23 06:03:03;;;;;;;15.13;9.80;;;;;;;4.12;53.78;96810.19;6077155;23;20160;-81
2022/03/23 06:05:29;;;;;;;14.77;9.87;;;;;;;4.15;54.36;96810.00;6102759;23;20179;-77
2022/03/23 06:07:54;;;;;;;18.43;11.07;;;;;;;4.19;54.21;96814.94;6103737;23;20152;-78
2022/03/23 06:10:19;;;;;;;17.17;10.83;;;;;;;4.27;53.60;96811.97;6105818;23;20175;-77
2022/03/23 06:12:45;;;;;;;14.87;10.30;;;;;;;4.36;53.58;96808.09;6081058;23;20547;-79
2022/03/23 06:15:11;;;;;;;14.43;10.63;;;;;;;4.45;53.49;96812.78;6080259;23;20242;-79
2022/03/23 06:17:37;;;;;;;13.47;10.33;;;;;;;4.52;53.41;96819.28;6080809;23;20168;-79
2022/03/23 06:20:03;;;;;;;16.60;11.40;;;;;;;4.59;53.88;96818.03;6080957;23;20163;-80
2022/03/23 06:22:29;;;;;;;16.63;11.27;;;;;;;4.68;53.23;96815.00;6101296;23;20207;-80
2022/03/23 06:24:54;;;;;;;16.40;11.47;;;;;;;4.79;53.21;96812.69;6081477;23;20210;-79
2022/03/23 06:27:20;;;;;;;14.90;11.40;;;;;;;4.89;52.40;96822.47;6107151;23;20167;-78
2022/03/23 06:29:45;;;;;;;18.00;11.27;;;;;;;4.97;52.22;96820.34;6105893;23;20188;-78
2022/03/23 06:32:12;;;;;;;17.67;11.13;;;;;;;5.06;52.13;96828.38;6081751;23;20163;-78
2022/03/23 06:34:38;;;;;;;14.23;10.70;;;;;;;5.12;52.01;96827.22;6105021;23;20207;-78
2022/03/23 06:37:04;;;;;;;16.03;11.57;;;;;;;5.24;51.80;96829.13;6106612;23;20137;-77
2022/03/23 06:39:30;;;;;;;17.33;11.60;;;;;;;5.29;51.95;96834.03;6081724;23;20248;-79
2022/03/23 06:41:55;;;;;;;18.77;11.97;;;;;;;5.33;51.81;96836.34;6130352;23;20152;-78
2022/03/23 06:44:21;;;;;;;17.03;12.20;;;;;;;5.41;51.71;96833.38;6078837;23;20522;-78
2022/03/23 06:46:46;;;;;;;14.50;10.63;;;;;;;5.48;51.77;96834.69;6079340;23;20175;-79
2022/03/23 06:49:12;;;;;;;16.73;11.70;;;;;;;5.56;51.26;96831.66;6103005;23;20207;-77
2022/03/23 06:51:38;;;;;;;17.67;12.67;;;;;;;5.66;51.02;96843.16;6076477;23;20160;-78
2022/03/23 06:54:03;;;;;;;17.50;12.67;;;;;;;5.80;50.87;96839.78;6107186;23;20247;-76
2022/03/23 06:56:28;;;;;;;16.03;12.47;;;;;;;5.90;50.60;96831.47;6134627;23;20164;-78
2022/03/23 06:58:53;;;;;;;17.77;13.70;;;;;;;6.05;50.30;96841.81;6119929;23;20187;-77
2022/03/23 07:01:19;;;;;;;21.87;15.30;;;;;;;6.20;49.47;96846.94;6146491;23;20156;-77
2022/03/23 07:03:44;;;;;;;21.40;13.10;;;;;;;6.37;48.56;96845.94;6090019;23;20160;-79
2022/03/23 07:06:09;;;;;;;20.17;13.17;;;;;;;6.39;48.65;96846.69;6108532;23;20179;-79
2022/03/23 07:11:35;;;;;;;17.90;12.77;;;;;;;6.51;49.22;96848.53;6068373;23;20570;-79
2022/03/23 07:14:01;;;;;;;19.57;12.60;;;;;;;6.52;48.95;96851.94;6075796;23;20170;-78
2022/03/23 07:16:28;;;;;;;20.43;13.93;;;;;;;6.44;49.45;96849.81;6082323;23;20167;-78
2022/03/23 07:18:53;;;;;;;19.00;13.10;;;;;;;6.53;49.66;96856.19;6103640;23;20152;-78
2022/03/23 07:21:19;;;;;;;17.63;13.40;;;;;;;6.66;49.08;96858.88;6082676;23;20163;-79
2022/03/23 07:23:44;;;;;;;15.50;12.30;;;;;;;6.82;48.58;96857.88;6082044;23;20521;-79
2022/03/23 07:26:09;;;;;;;18.53;12.80;;;;;;;6.98;47.95;96862.06;6080552;23;20194;-78
2022/03/23 07:28:35;;;;;;;17.80;12.90;;;;;;;7.14;47.73;96864.56;6079409;23;20167;-78
2022/03/23 07:31:00;;;;;;;16.43;12.83;;;;;;;7.32;46.99;96861.66;6102011;23;20204;-78
2022/03/23 07:33:25;;;;;;;17.93;13.33;;;;;;;7.46;46.62;96863.41;6078354;23;20594;-78
2022/03/23 07:35:51;;;;;;;20.73;13.57;;;;;;;7.53;47.29;96869.84;6102852;23;20176;-78
2022/03/23 07:38:17;;;;;;;20.60;14.50;;;;;;;7.70;47.14;96868.78;6106122;23;20159;-79
2022/03/23 07:40:42;;;;;;;22.47;13.87;;;;;;;7.77;47.54;96871.78;6108025;23;20518;-78
2022/03/23 07:43:08;;;;;;;21.00;14.40;;;;;;;7.88;47.91;96870.19;6129742;23;20219;-79
2022/03/23 07:45:33;;;;;;;18.20;13.30;;;;;;;7.92;48.16;96870.81;6104993;23;20180;-77
2022/03/23 07:47:59;;;;;;;18.37;13.43;;;;;;;7.96;48.03;96872.28;6129683;23;20610;-78
2022/03/23 07:50:24;;;;;;;20.83;13.03;;;;;;;7.94;48.28;96879.28;6105306;23;20182;-79
2022/03/23 07:52:50;;;;;;;20.30;13.83;;;;;;;8.05;47.87;96873.44;6079181;23;20167;-77
2022/03/23 07:55:15;;;;;;;20.00;12.90;;;;;;;8.19;46.65;96878.53;6078230;23;20195;-78
2022/03/23 07:57:40;;;;;;;17.80;12.87;;;;;;;8.30;47.22;96880.41;6079587;23;20160;-79
2022/03/23 08:00:06;;;;;;;24.07;14.17;;;;;;;8.36;46.43;96886.06;6105902;23;20152;-78
2022/03/23 08:02:31;;;;;;;18.67;13.33;;;;;;;8.41;45.96;96881.41;6081447;23;20168;-79
2022/03/23 08:04:58;;;;;;;17.47;12.73;;;;;;;8.52;45.89;96883.28;6128797;23;20172;-80
2022/03/23 08:07:23;;;;;;;17.10;12.73;;;;;;;8.54;45.42;96883.16;6105976;23;20159;-79
2022/03/23 08:09:49;;;;;;;18.57;12.93;;;;;;;8.66;45.46;96888.38;6105226;23;20627;-78
2022/03/23 08:12:16;;;;;;;16.60;12.27;;;;;;;8.77;45.70;96890.25;6079603;23;20159;-78
2022/03/23 08:14:42;;;;;;;17.90;13.03;;;;;;;8.95;45.06;96885.56;6104199;23;20211;-78
2022/03/23 08:17:07;;;;;;;17.53;12.73;;;;;;;9.00;44.22;96886.06;6104105;23;20507;-79
2022/03/23 08:19:32;;;;;;;18.20;12.10;;;;;;;9.04;44.51;96890.13;6128266;23;20234;-79
2022/03/23 08:21:58;;;;;;;20.53;12.80;;;;;;;9.17;44.53;96896.09;6103382;23;20449;-78
2022/03/23 08:24:23;;;;;;;19.83;12.80;;;;;;;9.19;44.93;96902.03;6104111;23;20191;-78
2022/03/23 08:26:48;;;;;;;16.83;12.97;;;;;;;9.27;45.06;96901.47;6102804;23;20160;-77
2022/03/23 08:29:14;;;;;;;18.40;13.63;;;;;;;9.51;46.08;96901.53;6075629;23;20188;-80
2022/03/23 08:31:39;;;;;;;17.30;13.20;;;;;;;9.56;45.51;96909.81;6101288;23;20753;-80
2022/03/23 08:34:05;;;;;;;18.90;14.37;;;;;;;9.62;45.27;96907.59;6101301;23;20153;-78
2022/03/23 08:36:31;;;;;;;18.30;12.90;;;;;;;9.71;45.08;96908.72;6102399;23;20163;-77
2022/03/23 08:38:56;;;;;;;19.07;13.63;;;;;;;9.68;44.81;96903.75;6101672;23;20172;-78
2022/03/23 08:41:22;;;;;;;21.00;12.93;;;;;;;9.68;45.32;96913.31;6074848;23;20599;-77
2022/03/23 08:43:48;;;;;;;21.17;14.03;;;;;;;9.73;45.10;96912.06;6101587;23;20171;-77
2022/03/23 08:46:13;;;;;;;17.03;13.43;;;;;;;9.64;45.55;96913.53;6076090;23;20505;-77
2022/03/23 08:48:39;;;;;;;18.80;12.50;;;;;;;9.63;44.34;96911.06;6076991;23;20243;-77
2022/03/23 08:51:04;;;;;;;18.70;13.43;;;;;;;9.77;44.27;96912.66;6101065;23;20622;-76
2022/03/23 08:53:30;;;;;;;19.10;13.37;;;;;;;9.73;43.89;96914.66;6074928;23;20198;-77
2022/03/23 08:55:55;;;;;;;20.10;13.00;;;;;;;9.77;44.45;96905.69;6076071;23;20195;-77
2022/03/23 08:58:20;;;;;;;19.63;13.70;;;;;;;9.88;44.40;96910.13;6101552;23;20179;-77
2022/03/23 09:00:46;;;;;;;17.13;13.30;;;;;;;9.84;45.17;96909.53;6076914;23;20203;-78
2022/03/23 09:03:11;;;;;;;18.47;13.80;;;;;;;9.99;45.03;96910.19;6101205;23;20179;-78
2022/03/23 09:05:37;;;;;;;19.50;12.80;;;;;;;10.24;43.81;96909.25;6103944;23;20628;-78
2022/03/23 09:08:02;;;;;;;18.97;13.17;;;;;;;10.33;43.66;96900.78;6103568;23;20175;-77
2022/03/23 09:10:28;;;;;;;19.27;13.97;;;;;;;10.37;43.35;96909.19;6127572;23;20180;-78
2022/03/23 09:12:53;;;;;;;18.60;13.67;;;;;;;10.40;42.30;96912.38;6101570;23;20590;-77
2022/03/23 09:15:19;;;;;;;20.30;13.90;;;;;;;10.54;42.09;96910.53;6103824;23;20186;-78
2022/03/23 09:17:44;;;;;;;19.53;13.70;;;;;;;10.66;41.98;96912.22;6077422;23;20167;-79
2022/03/23 09:20:12;;;;;;;19.27;13.83;;;;;;;10.59;42.01;96906.63;6101733;23;20152;-78
2022/03/23 09:22:37;;;;;;;17.20;12.93;;;;;;;10.72;40.87;96909.16;6080345;23;20443;-77
2022/03/23 09:25:05;;;;;;;20.47;14.10;;;;;;;10.79;38.68;96907.78;6077199;23;20180;-78
2022/03/23 09:27:38;;;;;;;16.90;13.77;;;;;;;10.89;38.78;96907.91;6100794;23;20496;-76
2022/03/23 09:30:05;;;;;;;18.87;13.87;;;;;;;10.82;36.47;96901.50;6102898;23;20203;-79
2022/03/23 09:32:30;;;;;;;17.90;13.67;;;;;;;10.88;37.33;96901.88;6103894;23;20586;-77
2022/03/23 09:34:56;;;;;;;20.97;14.00;;;;;;;10.99;36.11;96907.06;6078343;23;20184;-77
2022/03/23 09:40:06;;;;;;;20.30;13.47;;;;;;;11.15;36.66;96913.72;6131036;23;20151;-77
2022/03/23 09:42:31;;;;;;;19.80;13.43;;;;;;;11.23;36.98;96911.34;6105242;23;20156;-77
2022/03/23 09:44:57;;;;;;;18.20;12.93;;;;;;;11.22;36.84;96904.47;6131438;23;20206;-78
2022/03/23 09:47:22;;;;;;;16.80;13.30;;;;;;;11.32;36.04;96906.25;6105267;23;20169;-78
2022/03/23 09:49:48;;;;;;;20.30;13.30;;;;;;;11.22;36.92;96905.31;6081836;23;20191;-78
2022/03/23 09:52:14;;;;;;;17.97;13.10;;;;;;;11.24;36.65;96907.81;6081834;23;20366;-78
2022/03/23 09:54:41;;;;;;;18.63;12.73;;;;;;;11.40;36.58;96903.06;6083179;23;20204;-78
2022/03/23 09:57:07;;;;;;;19.17;13.27;;;;;;;11.43;36.09;96902.81;6130807;23;20160;-78
2022/03/23 09:59:33;;;;;;;16.13;13.17;;;;;;;11.50;36.96;96903.19;6082663;23;20171;-78
2022/03/23 10:02:01;;;;;;;18.13;12.63;;;;;;;11.59;36.16;96903.28;6079882;23;20164;-76
2022/03/23 10:04:48;;;;;;;16.67;13.60;;;;;;;11.65;35.41;96899.34;6106353;23;20184;-79
2022/03/23 10:07:17;;;;;;;17.23;12.70;;;;;;;11.64;35.48;96901.13;6105168;23;20625;-77
2022/03/23 10:10:07;;;;;;;18.23;12.53;;;;;;;11.71;36.08;96901.47;6105351;23;20186;-78
2022/03/23 10:13:43;;;;;;;17.97;12.53;;;;;;;11.87;36.16;96901.13;6128196;23;20148;-77
2022/03/23 10:16:46;;;;;;;15.63;12.40;;;;;;;11.97;34.76;96896.81;6015641;23;20179;-77
2022/03/23 10:19:13;;;;;;;15.27;12.43;;;;;;;12.08;34.01;96899.38;6128418;23;20210;-76
2022/03/23 10:21:42;;;;;;;18.47;14.77;;;;;;;12.22;32.55;96897.44;6101379;23;20156;-78
2022/03/23 10:24:07;;;;;;;13.47;11.53;;;;;;;12.22;32.62;96895.66;6103902;23;20180;-78
2022/03/23 10:26:36;;;;;;;13.90;10.50;;;;;;;12.38;31.07;96887.44;6128513;23;20152;-79
2022/03/23 10:29:01;;;;;;;16.57;10.93;;;;;;;12.42;31.41;96894.84;6079171;23;20167;-78
2022/03/23 10:31:27;;;;;;;14.43;11.10;;;;;;;12.58;31.15;96891.00;6101156;23;20471;-78
2022/03/23 10:34:00;;;;;;;17.77;11.70;;;;;;;12.56;31.46;96888.53;6105544;23;20657;-79
2022/03/23 10:36:28;;;;;;;18.23;10.37;;;;;;;12.66;31.00;96889.41;6103671;23;20160;-78
2022/03/23 10:39:01;;;;;;;16.20;10.90;;;;;;;12.60;30.74;96881.28;6079508;23;20239;-78
2022/03/23 10:41:27;;;;;;;13.97;10.40;;;;;;;12.76;31.46;96879.88;6078643;23;20158;-79
2022/03/23 10:43:52;;;;;;;10.77;8.47;;;;;;;12.97;27.01;96884.22;6079009;23;20553;-79
2022/03/23 10:46:18;;;;;;;12.73;8.73;;;;;;;12.96;27.16;96890.38;6102976;23;20156;-78
2022/03/23 10:49:13;;;;;;;11.13;8.83;;;;;;;13.07;26.95;96884.25;6102255;23;20534;-79
2022/03/23 10:51:39;;;;;;;11.47;8.60;;;;;;;13.15;27.19;96877.44;5990886;23;20264;-80
2022/03/23 10:54:23;;;;;;;11.80;9.27;;;;;;;13.38;26.53;96874.69;5992748;23;20167;-78
2022/03/23 10:56:49;;;;;;;15.10;8.97;;;;;;;13.24;26.87;96876.69;5995973;23;20220;-79
2022/03/23 10:59:22;;;;;;;15.13;8.40;;;;;;;13.33;27.57;96873.28;5990831;23;20166;-79
2022/03/23 11:02:04;;;;;;;10.83;7.43;;;;;;;13.27;26.11;96863.38;6008435;23;20158;-79
2022/03/23 11:04:47;;;;;;;12.47;8.40;;;;;;;13.54;24.88;96864.56;5985066;23;20182;-78
2022/03/23 11:07:23;;;;;;;13.53;8.97;;;;;;;13.55;26.14;96868.81;6008443;23;20166;-78
2022/03/23 11:18:09;;;;;;;13.50;8.90;;;;;;;13.71;24.75;96868.31;6008316;23;20245;-80
2022/03/23 11:20:46;;;;;;;11.03;8.17;;;;;;;13.73;24.20;96866.38;5985213;23;20151;-78
2022/03/23 11:23:25;;;;;;;9.90;8.70;;;;;;;13.50;24.20;96868.38;6007370;23;20567;-78
2022/03/23 11:25:52;;;;;;;11.57;8.20;;;;;;;13.71;23.97;96861.31;6007869;23;20193;-79
2022/03/23 11:28:18;;;;;;;10.67;8.70;;;;;;;13.86;25.32;96851.28;6054049;23;20177;-80
2022/03/23 11:30:45;;;;;;;10.50;8.50;;;;;;;13.89;26.88;96854.47;6076804;23;20179;-80
2022/03/23 11:33:11;;;;;;;9.93;8.27;;;;;;;14.05;24.21;96853.94;6099683;23;20167;-79
2022/03/23 11:35:49;;;;;;;12.37;9.60;;;;;;;14.00;24.39;96853.50;6073159;23;20206;-79
2022/03/23 11:38:22;;;;;;;11.57;9.37;;;;;;;14.00;24.74;96850.88;6100384;23;20140;-78
2022/03/23 11:40:50;;;;;;;12.63;8.83;;;;;;;14.05;24.41;96845.25;6131253;23;20163;-80
2022/03/23 11:43:17;;;;;;;11.97;8.20;;;;;;;13.85;24.13;96845.22;6080305;23;20543;-78
2022/03/23 11:45:44;;;;;;;12.37;9.87;;;;;;;13.84;24.11;96854.03;6104337;23;20175;-78
2022/03/23 11:48:12;;;;;;;12.23;9.73;;;;;;;14.06;25.35;96841.69;6079801;23;20160;-79
2022/03/23 11:50:47;;;;;;;14.30;10.80;;;;;;;14.16;25.15;96845.13;6105554;23;20188;-78